Search for airport 
image banner adimage banner adimage banner ad
image banner ad

2PN9 - Sun Company-Radnor

Located in Radnor, United States

ICAO - 2PN9, IATA -

Data provided by Airmate  

General information

Coordinates: N40°2'49" W75°21'28"
Elevation is 425 feet MSL.
Magnetic variation is -11° East
View others Airports in Pennsylvania

Operational data

Special qualification required
Current time UTC:
Current local time:
Weather at : KLOM - Wings Field ( 13 km )
METAR: KLOM 092335Z AUTO 07008KT 5SM -RA BR OVC110 09/07 A2987 RMK AO2 P0002 T00870072
View NOTAMs / SUP AIP / TFR affecting this airport [VIEW]
Communications frequencies: [VIEW]

Runways:

Airport contact information

Address: Radnor United States

Satellite view of 2PN9